Time;durP1;ratioP1;P1;durP2;ratioP2;P2;SDS_P1;SDS_P2;PMS_P1;PMS_P2;Temp;Humidity;BMP_temperature;BMP_pressure;BME280_temperature;BME280_humidity;BME280_pressure;Samples;Min_cycle;Max_cycle;Signal;HPM_P1;HPM_P2
2024/01/01 00:01:07;;;;;;;;;;;;;;;16.09;47.95;100975.84;5074071;28;1154;-54
2024/01/01 00:03:33;;;;;;;;;;;;;;;17.38;44.90;100969.59;5073023;28;1905;-53
2024/01/01 00:05:58;;;;;;;;;;;;;;;16.52;46.66;100972.06;5076324;28;1221;-57
2024/01/01 00:08:24;;;;;;;;;;;;;;;16.02;47.79;100968.28;5076056;28;1249;-58
2024/01/01 00:10:50;;;;;;;;;;;;;;;15.72;48.44;100965.84;5062239;28;1161;-56
2024/01/01 00:13:15;;;;;;;;;;;;;;;15.58;48.85;100969.41;5063546;28;1152;-58
2024/01/01 00:15:41;;;;;;;;;;;;;;;16.97;45.71;100976.03;5068433;28;1051;-57
2024/01/01 00:18:07;;;;;;;;;;;;;;;17.28;44.62;100978.34;5075701;28;1183;-58
2024/01/01 00:20:32;;;;;;;;;;;;;;;16.33;47.18;100969.84;5076030;28;1142;-57
2024/01/01 00:22:58;;;;;;;;;;;;;;;15.95;48.03;100969.63;5075638;28;1977;-57
2024/01/01 00:25:23;;;;;;;;;;;;;;;15.73;48.45;100973.69;5076284;28;1147;-58
2024/01/01 00:27:49;;;;;;;;;;;;;;;15.59;48.73;100974.63;5060280;28;1079;-58
2024/01/01 00:30:14;;;;;;;;;;;;;;;17.05;45.78;100973.69;5056278;28;1040;-57
2024/01/01 00:32:40;;;;;;;;;;;;;;;17.48;44.29;100976.91;5056315;28;1680;-58
2024/01/01 00:35:06;;;;;;;;;;;;;;;16.53;46.45;100971.13;5069281;28;1112;-58
2024/01/01 00:37:32;;;;;;;;;;;;;;;16.08;47.57;100974.97;5066844;28;1299;-57
2024/01/01 00:39:57;;;;;;;;;;;;;;;15.78;48.32;100971.59;5062806;28;1195;-58
2024/01/01 00:42:24;;;;;;;;;;;;;;;15.64;48.82;100972.53;5066730;28;1964;-57
2024/01/01 00:44:50;;;;;;;;;;;;;;;17.09;45.62;100969.91;5072158;28;1095;-57
2024/01/01 00:47:16;;;;;;;;;;;;;;;16.96;45.34;100964.59;5054738;28;1534;-57
2024/01/01 00:49:41;;;;;;;;;;;;;;;16.25;47.08;100957.91;5055364;28;1183;-56
2024/01/01 00:52:07;;;;;;;;;;;;;;;15.90;47.82;100958.47;5067060;28;921;-55
2024/01/01 00:54:32;;;;;;;;;;;;;;;15.66;48.58;100961.81;5059672;28;1147;-52
2024/01/01 00:56:58;;;;;;;;;;;;;;;15.57;48.93;100957.09;5065123;28;1129;-56
2024/01/01 00:59:24;;;;;;;;;;;;;;;16.77;46.62;100949.09;5057396;28;1170;-55
2024/01/01 01:01:50;;;;;;;;;;;;;;;17.28;44.88;100947.31;5075872;28;1898;-55
2024/01/01 01:04:15;;;;;;;;;;;;;;;16.36;47.03;100949.22;5072098;28;1155;-55
2024/01/01 01:06:43;;;;;;;;;;;;;;;15.98;47.81;100939.41;5065442;28;1269;-56
2024/01/01 01:09:08;;;;;;;;;;;;;;;15.74;48.39;100940.94;5062431;28;1124;-56
2024/01/01 01:11:35;;;;;;;;;;;;;;;16.02;48.15;100936.47;5075659;28;1079;-56
2024/01/01 01:14:01;;;;;;;;;;;;;;;17.38;45.03;100940.34;5044200;28;1206;-55
2024/01/01 01:16:26;;;;;;;;;;;;;;;16.58;46.40;100938.91;5072179;28;927;-55
2024/01/01 01:18:52;;;;;;;;;;;;;;;16.06;47.78;100929.13;5054123;28;1142;-55
2024/01/01 01:21:18;;;;;;;;;;;;;;;15.82;48.12;100934.25;5064978;28;1063;-53
2024/01/01 01:23:43;;;;;;;;;;;;;;;15.59;48.92;100921.59;5059087;28;1998;-56
2024/01/01 01:26:09;;;;;;;;;;;;;;;16.13;48.06;100924.25;5065388;28;1035;-55
2024/01/01 01:28:35;;;;;;;;;;;;;;;17.48;44.64;100926.38;5064897;28;1043;-54
2024/01/01 01:31:03;;;;;;;;;;;;;;;16.67;46.15;100919.66;5057817;28;1282;-54
2024/01/01 01:33:29;;;;;;;;;;;;;;;16.15;47.27;100915.22;5058445;28;1174;-56
2024/01/01 01:35:55;;;;;;;;;;;;;;;15.82;48.49;100905.06;5047693;28;1190;-56
2024/01/01 01:38:21;;;;;;;;;;;;;;;15.59;48.99;100910.97;5059594;28;1080;-54
2024/01/01 01:40:46;;;;;;;;;;;;;;;17.05;45.65;100901.94;5060252;28;945;-55
2024/01/01 01:43:21;;;;;;;;;;;;;;;17.08;45.32;100901.69;5058006;28;1909;-56
2024/01/01 01:45:48;;;;;;;;;;;;;;;16.28;47.00;100904.63;5069784;28;1561;-57
2024/01/01 01:48:14;;;;;;;;;;;;;;;15.95;47.94;100890.03;5068511;28;1059;-56
2024/01/01 01:50:40;;;;;;;;;;;;;;;15.67;48.49;100892.75;5078806;28;1111;-56
2024/01/01 01:53:05;;;;;;;;;;;;;;;15.88;48.33;100888.75;5059931;28;1186;-55
2024/01/01 01:55:31;;;;;;;;;;;;;;;17.30;45.02;100889.53;5051112;28;1159;-57
2024/01/01 01:57:57;;;;;;;;;;;;;;;16.82;45.95;100888.50;5054118;28;1203;-56
2024/01/01 02:00:22;;;;;;;;;;;;;;;16.21;47.38;100874.16;5060862;28;1103;-57
2024/01/01 02:02:48;;;;;;;;;;;;;;;15.86;48.44;100878.25;5078388;28;1914;-57
2024/01/01 02:05:14;;;;;;;;;;;;;;;15.70;48.48;100872.28;5043844;28;916;-57
2024/01/01 02:07:40;;;;;;;;;;;;;;;15.53;49.01;100872.44;5074795;28;1115;-58
2024/01/01 02:10:06;;;;;;;;;;;;;;;16.77;46.41;100875.56;5078280;28;1122;-58
2024/01/01 02:12:32;;;;;;;;;;;;;;;17.44;44.53;100867.22;5075636;28;1103;-57
2024/01/01 02:14:57;;;;;;;;;;;;;;;16.45;46.85;100868.06;5067601;28;1071;-57
2024/01/01 02:17:23;;;;;;;;;;;;;;;15.98;48.09;100860.66;5063689;28;852;-57
2024/01/01 02:19:50;;;;;;;;;;;;;;;15.71;48.19;100856.28;5069161;28;1079;-56
2024/01/01 02:22:16;;;;;;;;;;;;;;;15.56;48.94;100852.84;5058292;28;1897;-58
2024/01/01 02:24:41;;;;;;;;;;;;;;;16.14;48.15;100852.50;5067397;28;1126;-57
2024/01/01 02:27:07;;;;;;;;;;;;;;;17.44;44.80;100842.44;5078124;28;1141;-58
2024/01/01 02:29:32;;;;;;;;;;;;;;;16.65;46.52;100853.38;5051314;28;1223;-58
2024/01/01 02:31:58;;;;;;;;;;;;;;;16.06;47.58;100848.66;5077734;28;1036;-57
2024/01/01 02:34:26;;;;;;;;;;;;;;;15.69;48.25;100850.22;5060359;28;1138;-57
2024/01/01 02:36:53;;;;;;;;;;;;;;;15.54;48.68;100858.25;5066115;28;1115;-58
2024/01/01 02:39:19;;;;;;;;;;;;;;;15.85;48.49;100854.47;5078104;28;1082;-57
2024/01/01 02:41:44;;;;;;;;;;;;;;;17.27;45.14;100846.38;5058483;28;1910;-57
2024/01/01 02:44:10;;;;;;;;;;;;;;;17.01;45.23;100847.31;5078060;28;1012;-58
2024/01/01 02:46:36;;;;;;;;;;;;;;;16.25;46.97;100835.81;5059598;28;1099;-57
2024/01/01 02:49:02;;;;;;;;;;;;;;;15.91;48.28;100844.28;5060326;28;1517;-56
2024/01/01 02:51:27;;;;;;;;;;;;;;;15.62;48.68;100836.50;5077767;28;1027;-55
2024/01/01 02:53:53;;;;;;;;;;;;;;;16.19;47.83;100840.69;5050811;28;888;-54
2024/01/01 02:56:19;;;;;;;;;;;;;;;17.44;44.53;100837.13;5064281;28;1159;-55
2024/01/01 02:58:45;;;;;;;;;;;;;;;16.61;46.53;100835.13;5077726;28;1132;-56
2024/01/01 03:01:10;;;;;;;;;;;;;;;16.10;47.67;100831.59;5077476;28;1040;-56
2024/01/01 03:03:36;;;;;;;;;;;;;;;15.78;48.22;100844.28;5077588;28;1992;-56
2024/01/01 03:06:02;;;;;;;;;;;;;;;15.56;48.89;100831.63;5040534;28;894;-54
2024/01/01 03:08:28;;;;;;;;;;;;;;;16.12;48.09;100819.03;5050282;28;1060;-56
2024/01/01 03:10:53;;;;;;;;;;;;;;;17.43;44.66;100833.63;5063856;28;1218;-56
2024/01/01 03:13:19;;;;;;;;;;;;;;;16.84;45.64;100828.13;5055969;28;1075;-56
2024/01/01 03:15:44;;;;;;;;;;;;;;;16.24;47.32;100820.84;5061200;28;1076;-56
2024/01/01 03:18:17;;;;;;;;;;;;;;;15.86;48.17;100821.69;5049812;28;1202;-56
2024/01/01 03:20:42;;;;;;;;;;;;;;;15.65;48.83;100808.94;5055351;28;1287;-54
2024/01/01 03:23:08;;;;;;;;;;;;;;;15.63;49.19;100808.19;5067961;28;1975;-56
2024/01/01 03:25:33;;;;;;;;;;;;;;;17.11;45.63;100813.81;5077322;28;1107;-56
2024/01/01 03:27:59;;;;;;;;;;;;;;;16.98;45.34;100805.84;5067142;28;1043;-55
2024/01/01 03:30:25;;;;;;;;;;;;;;;16.22;47.39;100812.13;5059511;28;999;-55
2024/01/01 03:32:50;;;;;;;;;;;;;;;15.89;48.04;100809.06;5067547;28;1056;-56
2024/01/01 03:35:16;;;;;;;;;;;;;;;15.63;48.89;100803.72;5076545;28;1180;-55
2024/01/01 03:37:42;;;;;;;;;;;;;;;16.63;46.67;100801.34;5059150;28;1259;-58
2024/01/01 03:40:08;;;;;;;;;;;;;;;17.23;44.99;100796.06;5076758;28;1063;-58
2024/01/01 03:42:34;;;;;;;;;;;;;;;16.39;46.84;100791.50;5058714;28;1979;-59
2024/01/01 03:44:59;;;;;;;;;;;;;;;15.96;48.14;100787.41;5073315;28;1066;-55
2024/01/01 03:47:26;;;;;;;;;;;;;;;15.66;48.45;100778.81;5067266;28;1210;-57
2024/01/01 03:49:51;;;;;;;;;;;;;;;15.70;48.64;100771.50;5055516;28;1238;-56
2024/01/01 03:52:17;;;;;;;;;;;;;;;17.21;45.28;100775.91;5058129;28;1072;-54
2024/01/01 03:54:42;;;;;;;;;;;;;;;16.87;45.78;100781.88;5076498;28;1166;-57
2024/01/01 03:57:08;;;;;;;;;;;;;;;16.14;47.30;100780.84;5077047;28;1135;-51
2024/01/01 03:59:34;;;;;;;;;;;;;;;15.84;48.25;100776.69;5063068;28;988;-50
2024/01/01 04:02:00;;;;;;;;;;;;;;;15.64;48.41;100772.75;5057964;28;1909;-51
2024/01/01 04:04:26;;;;;;;;;;;;;;;15.50;49.06;100774.56;5058396;28;1143;-51
2024/01/01 04:06:52;;;;;;;;;;;;;;;16.97;45.87;100774.06;5048593;28;1237;-52
2024/01/01 04:09:18;;;;;;;;;;;;;;;17.00;45.29;100774.69;5049920;28;1190;-53
2024/01/01 04:11:44;;;;;;;;;;;;;;;16.20;47.53;100776.88;5041095;28;1045;-51
2024/01/01 04:14:09;;;;;;;;;;;;;;;15.86;48.08;100773.94;5067590;28;1055;-51
2024/01/01 04:16:35;;;;;;;;;;;;;;;15.62;48.68;100766.72;5069414;28;1527;-52
2024/01/01 04:19:01;;;;;;;;;;;;;;;17.07;45.53;100766.25;5056627;28;1114;-50
2024/01/01 04:21:27;;;;;;;;;;;;;;;16.92;45.48;100769.09;5072354;28;1193;-54
2024/01/01 04:23:55;;;;;;;;;;;;;;;16.18;47.61;100764.69;5075715;28;1905;-56
2024/01/01 04:26:21;;;;;;;;;;;;;;;15.84;48.43;100767.88;5073852;28;1271;-56
2024/01/01 04:28:46;;;;;;;;;;;;;;;15.59;48.78;100754.53;5069291;28;953;-55
2024/01/01 04:31:12;;;;;;;;;;;;;;;16.89;45.94;100766.69;5066253;28;1107;-56
2024/01/01 04:33:37;;;;;;;;;;;;;;;17.20;44.99;100764.41;5075468;28;1174;-57
2024/01/01 04:36:03;;;;;;;;;;;;;;;16.33;47.25;100773.38;5076393;28;1082;-55
2024/01/01 04:38:29;;;;;;;;;;;;;;;15.93;47.99;100772.56;5076144;28;1139;-55
2024/01/01 04:40:55;;;;;;;;;;;;;;;15.71;48.51;100767.88;5075734;28;1090;-55
2024/01/01 04:43:20;;;;;;;;;;;;;;;16.22;47.96;100769.66;5062322;28;1895;-53
2024/01/01 04:45:46;;;;;;;;;;;;;;;17.50;44.56;100764.84;5075182;28;1548;-54
2024/01/01 04:48:11;;;;;;;;;;;;;;;16.59;46.27;100767.97;5062900;28;1078;-54
2024/01/01 04:50:37;;;;;;;;;;;;;;;16.09;47.73;100766.19;5066637;28;1166;-55
2024/01/01 04:53:03;;;;;;;;;;;;;;;15.78;48.23;100761.22;5060523;28;1223;-55
2024/01/01 04:55:28;;;;;;;;;;;;;;;15.57;48.71;100756.44;5066275;28;1067;-57
2024/01/01 04:57:54;;;;;;;;;;;;;;;16.87;46.31;100752.66;5071901;28;1147;-56
2024/01/01 05:00:20;;;;;;;;;;;;;;;17.23;45.24;100750.88;5066317;28;1139;-56
2024/01/01 05:02:45;;;;;;;;;;;;;;;16.33;47.20;100755.63;5075651;28;1973;-53
2024/01/01 05:05:11;;;;;;;;;;;;;;;15.90;48.09;100743.56;5071547;28;1130;-53
2024/01/01 05:07:37;;;;;;;;;;;;;;;15.66;48.67;100750.47;5059600;28;1142;-51
2024/01/01 05:10:03;;;;;;;;;;;;;;;15.51;49.03;100747.09;5064805;28;1334;-53
2024/01/01 05:12:28;;;;;;;;;;;;;;;16.46;47.33;100754.75;5072570;28;1160;-51
2024/01/01 05:14:54;;;;;;;;;;;;;;;17.50;44.55;100751.53;5075499;28;1092;-52
2024/01/01 05:17:19;;;;;;;;;;;;;;;16.51;46.43;100745.50;5071180;28;1097;-52
2024/01/01 05:19:45;;;;;;;;;;;;;;;16.01;47.58;100743.72;5059685;28;1023;-53
2024/01/01 05:22:11;;;;;;;;;;;;;;;15.77;48.12;100743.59;5073247;28;1973;-51
2024/01/01 05:24:36;;;;;;;;;;;;;;;16.94;46.34;100740.63;5078816;28;1207;-50
2024/01/01 05:27:03;;;;;;;;;;;;;;;16.11;47.38;100735.09;5078587;28;2594;-51
2024/01/01 05:29:31;;;;;;;;;;;;;;;15.35;48.18;100722.59;5076570;28;1188;-51
2024/01/01 05:31:57;;;;;;;;;;;;;;;15.01;47.83;100728.38;5078928;28;1310;-52
2024/01/01 05:34:23;;;;;;;;;;;;;;;16.68;46.77;100730.13;5079190;28;1239;-52
2024/01/01 05:36:49;;;;;;;;;;;;;;;15.43;48.71;100739.66;5078258;28;1254;-52
2024/01/01 05:39:14;;;;;;;;;;;;;;;16.50;48.04;100740.28;5079056;28;1309;-52
2024/01/01 05:41:40;;;;;;;;;;;;;;;16.45;47.29;100737.97;5078208;28;1239;-53
2024/01/01 05:44:06;;;;;;;;;;;;;;;15.56;47.74;100730.88;5078051;28;1992;-53
2024/01/01 05:46:31;;;;;;;;;;;;;;;15.22;47.38;100735.81;5078611;28;1187;-51
2024/01/01 05:48:57;;;;;;;;;;;;;;;16.33;48.37;100731.72;5078510;28;1282;-54
2024/01/01 05:51:23;;;;;;;;;;;;;;;16.69;47.04;100734.47;5078201;28;1254;-50
2024/01/01 05:53:48;;;;;;;;;;;;;;;15.64;48.23;100731.19;5077821;28;1222;-55
2024/01/01 05:56:14;;;;;;;;;;;;;;;15.37;47.19;100729.47;5078196;28;2671;-53
2024/01/01 05:58:40;;;;;;;;;;;;;;;16.52;47.94;100738.34;5078108;28;1266;-55
2024/01/01 06:01:05;;;;;;;;;;;;;;;15.78;48.61;100738.16;5078291;28;1368;-51
2024/01/01 06:03:31;;;;;;;;;;;;;;;15.46;47.53;100733.31;5077921;28;1984;-52
2024/01/01 06:05:56;;;;;;;;;;;;;;;15.94;48.75;100738.91;5077749;28;1175;-52
2024/01/01 06:08:22;;;;;;;;;;;;;;;16.86;46.92;100741.19;5078178;28;1301;-51
2024/01/01 06:10:48;;;;;;;;;;;;;;;15.73;47.91;100736.81;5078266;28;1127;-53
2024/01/01 06:13:14;;;;;;;;;;;;;;;15.39;47.61;100743.50;5078029;28;1251;-52
2024/01/01 06:15:40;;;;;;;;;;;;;;;15.41;48.07;100735.44;5077826;28;1175;-53
2024/01/01 06:18:06;;;;;;;;;;;;;;;17.04;46.67;100727.50;5076754;28;1356;-53
2024/01/01 06:20:31;;;;;;;;;;;;;;;15.79;47.93;100739.03;5077823;28;1278;-53
2024/01/01 06:22:57;;;;;;;;;;;;;;;15.46;47.96;100745.72;5077728;28;1909;-51
2024/01/01 06:25:23;;;;;;;;;;;;;;;17.29;46.54;100730.97;5077767;28;1223;-52
2024/01/01 06:27:50;;;;;;;;;;;;;;;16.42;47.63;100735.53;5068472;28;2599;-51
2024/01/01 06:30:15;;;;;;;;;;;;;;;15.69;47.76;100728.22;5073946;28;1094;-52
2024/01/01 06:32:41;;;;;;;;;;;;;;;15.52;47.22;100735.53;5077829;28;1198;-53
2024/01/01 06:35:06;;;;;;;;;;;;;;;15.33;46.58;100729.81;5074905;28;1182;-56
2024/01/01 06:37:32;;;;;;;;;;;;;;;15.47;47.44;100732.34;5067326;28;1118;-53
2024/01/01 06:39:58;;;;;;;;;;;;;;;16.43;47.38;100734.59;5075392;28;1055;-52
2024/01/01 06:42:23;;;;;;;;;;;;;;;15.50;48.51;100729.47;5058254;28;1918;-52
2024/01/01 06:44:49;;;;;;;;;;;;;;;15.30;47.27;100726.41;5073545;28;1155;-49
2024/01/01 06:47:14;;;;;;;;;;;;;;;16.92;47.36;100721.28;5068891;28;1031;-53
2024/01/01 06:49:40;;;;;;;;;;;;;;;16.01;48.47;100717.19;5070759;28;1218;-51
2024/01/01 06:52:06;;;;;;;;;;;;;;;15.50;48.04;100724.19;5057925;28;1076;-52
2024/01/01 06:54:32;;;;;;;;;;;;;;;16.86;47.65;100719.94;5072279;28;1024;-52
2024/01/01 06:56:57;;;;;;;;;;;;;;;16.45;47.86;100722.03;5068526;28;2397;-53
2024/01/01 06:59:26;;;;;;;;;;;;;;;15.89;47.54;100725.97;5076434;28;1303;-53
2024/01/01 07:01:52;;;;;;;;;;;;;;;15.49;47.58;100724.28;5063858;28;1921;-51
2024/01/01 07:04:18;;;;;;;;;;;;;;;15.87;48.48;100727.88;5070642;28;1130;-51
2024/01/01 07:06:44;;;;;;;;;;;;;;;16.62;47.74;100723.47;5060772;28;1152;-53
2024/01/01 07:09:10;;;;;;;;;;;;;;;15.75;48.10;100714.53;5076373;28;1081;-50
2024/01/01 07:11:36;;;;;;;;;;;;;;;15.46;47.44;100714.75;5074862;28;1043;-51
2024/01/01 07:14:01;;;;;;;;;;;;;;;16.56;48.42;100723.91;5057120;28;1203;-52
2024/01/01 07:16:27;;;;;;;;;;;;;;;16.48;47.92;100711.19;5072784;28;1087;-53
2024/01/01 07:18:53;;;;;;;;;;;;;;;15.71;48.17;100720.16;5066787;28;849;-50
2024/01/01 07:21:18;;;;;;;;;;;;;;;17.20;47.21;100718.38;5072529;28;1111;-54
2024/01/01 07:23:44;;;;;;;;;;;;;;;16.26;48.10;100720.72;5076645;28;1905;-53
2024/01/01 07:26:09;;;;;;;;;;;;;;;15.77;48.09;100727.66;5061321;28;2208;-51
2024/01/01 07:28:35;;;;;;;;;;;;;;;15.52;47.01;100718.78;5056777;28;1052;-53
2024/01/01 07:31:01;;;;;;;;;;;;;;;17.01;47.73;100717.94;5061542;28;1129;-50
2024/01/01 07:33:27;;;;;;;;;;;;;;;16.03;48.29;100720.56;5064978;28;1043;-54
2024/01/01 07:35:52;;;;;;;;;;;;;;;15.72;47.85;100719.19;5063321;28;1035;-52
2024/01/01 07:38:18;;;;;;;;;;;;;;;16.59;48.29;100722.81;5063333;28;1155;-52
2024/01/01 07:40:43;;;;;;;;;;;;;;;16.21;48.07;100722.88;5075635;28;1129;-53
2024/01/01 07:43:09;;;;;;;;;;;;;;;15.72;47.87;100719.19;5061010;28;1967;-51
2024/01/01 07:45:35;;;;;;;;;;;;;;;15.76;48.53;100723.34;5065478;28;1109;-52
2024/01/01 07:48:01;;;;;;;;;;;;;;;17.37;46.79;100719.72;5076501;28;1151;-53
2024/01/01 07:50:26;;;;;;;;;;;;;;;16.02;48.50;100718.00;5067551;28;1004;-52
2024/01/01 07:52:52;;;;;;;;;;;;;;;15.57;47.73;100721.97;5069774;28;1166;-53
2024/01/01 07:55:18;;;;;;;;;;;;;;;16.85;48.26;100725.38;5067470;28;885;-53
2024/01/01 07:57:46;;;;;;;;;;;;;;;16.06;48.46;100716.00;5063510;28;1815;-53
2024/01/01 08:00:12;;;;;;;;;;;;;;;15.70;47.25;100716.63;5076285;28;1067;-52
2024/01/01 08:02:37;;;;;;;;;;;;;;;15.51;46.66;100712.63;5060890;28;1901;-55
2024/01/01 08:05:03;;;;;;;;;;;;;;;16.52;48.26;100720.63;5065125;28;1179;-52
2024/01/01 08:07:29;;;;;;;;;;;;;;;17.07;46.79;100705.13;5072091;28;1031;-53
2024/01/01 08:09:54;;;;;;;;;;;;;;;15.94;47.98;100710.56;5076134;28;999;-52
2024/01/01 08:12:20;;;;;;;;;;;;;;;15.67;47.27;100716.84;5071170;28;1111;-51
2024/01/01 08:14:45;;;;;;;;;;;;;;;16.59;48.40;100710.41;5064766;28;1033;-52
2024/01/01 08:17:11;;;;;;;;;;;;;;;15.91;48.25;100716.94;5073885;28;1183;-52
2024/01/01 08:19:37;;;;;;;;;;;;;;;16.48;48.69;100713.84;5067378;28;897;-53
2024/01/01 08:22:02;;;;;;;;;;;;;;;17.37;46.49;100703.78;5062233;28;1897;-51
2024/01/01 08:24:28;;;;;;;;;;;;;;;16.09;48.28;100707.81;5066896;28;1015;-51
2024/01/01 08:26:53;;;;;;;;;;;;;;;15.83;47.31;100707.84;5065675;28;2407;-52
2024/01/01 08:29:19;;;;;;;;;;;;;;;16.20;48.39;100704.41;5067515;28;1090;-53
2024/01/01 08:31:44;;;;;;;;;;;;;;;16.47;48.08;100708.63;5069559;28;1057;-52
2024/01/01 08:34:10;;;;;;;;;;;;;;;15.72;48.22;100704.13;5075309;28;1189;-52
2024/01/01 08:36:36;;;;;;;;;;;;;;;15.53;47.11;100704.56;5074345;28;1040;-51
2024/01/01 08:39:01;;;;;;;;;;;;;;;15.70;47.72;100699.91;5055982;28;1094;-53
2024/01/01 08:41:27;;;;;;;;;;;;;;;17.25;46.97;100702.91;5056900;28;1044;-53
2024/01/01 08:43:56;;;;;;;;;;;;;;;16.03;48.23;100699.31;5070129;28;1910;-52
2024/01/01 08:46:23;;;;;;;;;;;;;;;15.66;47.55;100694.78;5075504;28;1306;-53
2024/01/01 08:48:49;;;;;;;;;;;;;;;15.52;47.15;100686.94;5075652;28;1127;-52
2024/01/01 08:51:15;;;;;;;;;;;;;;;15.36;46.28;100673.94;5076522;28;1019;-51
2024/01/01 08:53:40;;;;;;;;;;;;;;;16.83;48.05;100674.16;5078903;28;1179;-51
2024/01/01 08:56:06;;;;;;;;;;;;;;;15.95;48.21;100669.81;5077869;28;2482;-51
2024/01/01 08:58:32;;;;;;;;;;;;;;;15.55;48.15;100668.19;5074888;28;1040;-53
2024/01/01 09:00:57;;;;;;;;;;;;;;;15.35;47.27;100662.47;5079659;28;1078;-52
2024/01/01 09:03:23;;;;;;;;;;;;;;;16.96;47.29;100652.81;5067780;28;1984;-54
2024/01/01 09:05:49;;;;;;;;;;;;;;;15.83;48.54;100654.78;5078320;28;1044;-53
2024/01/01 09:08:14;;;;;;;;;;;;;;;15.54;47.84;100654.09;5079112;28;1045;-53
2024/01/01 09:10:40;;;;;;;;;;;;;;;17.03;47.24;100640.75;5078726;28;1054;-54
2024/01/01 09:13:07;;;;;;;;;;;;;;;15.92;48.22;100632.88;5079646;28;1024;-51
2024/01/01 09:15:32;;;;;;;;;;;;;;;15.64;47.57;100637.53;5061050;28;1078;-50
2024/01/01 09:17:58;;;;;;;;;;;;;;;15.53;47.02;100641.78;5059554;28;1079;-50
2024/01/01 09:20:24;;;;;;;;;;;;;;;16.85;47.94;100638.53;5072317;28;1059;-51
2024/01/01 09:22:51;;;;;;;;;;;;;;;16.05;48.43;100624.91;5070515;28;1898;-49
2024/01/01 09:25:18;;;;;;;;;;;;;;;15.66;48.10;100619.72;5079300;28;1075;-50
2024/01/01 09:27:44;;;;;;;;;;;;;;;15.53;47.46;100615.25;5076763;28;2588;-51
2024/01/01 09:30:10;;;;;;;;;;;;;;;17.25;47.31;100601.88;5079398;28;1110;-53
2024/01/01 09:32:35;;;;;;;;;;;;;;;16.03;48.29;100610.94;5069758;28;1068;-52
2024/01/01 09:35:01;;;;;;;;;;;;;;;15.72;48.08;100599.84;5058698;28;1040;-52
2024/01/01 09:37:26;;;;;;;;;;;;;;;16.59;48.06;100598.88;5041897;28;1207;-54
2024/01/01 09:39:52;;;;;;;;;;;;;;;15.84;48.33;100592.81;5074643;28;1195;-49
2024/01/01 09:42:18;;;;;;;;;;;;;;;15.59;47.91;100586.63;5078631;28;1906;-51
2024/01/01 09:44:48;;;;;;;;;;;;;;;15.66;48.01;100586.06;5076233;28;866;-50
2024/01/01 09:47:14;;;;;;;;;;;;;;;17.49;46.96;100587.63;5078659;28;1040;-48
2024/01/01 09:49:40;;;;;;;;;;;;;;;16.24;48.49;100581.97;5078118;28;1103;-51
2024/01/01 09:52:05;;;;;;;;;;;;;;;15.70;48.15;100583.22;5078836;28;1056;-52
2024/01/01 09:54:33;;;;;;;;;;;;;;;15.78;48.43;100578.19;5078234;28;1354;-49
2024/01/01 09:56:59;;;;;;;;;;;;;;;17.26;47.09;100574.34;5059145;28;2422;-53
2024/01/01 09:59:34;;;;;;;;;;;;;;;16.05;48.21;100569.19;5078656;28;1235;-54
2024/01/01 10:02:04;;;;;;;;;;;;;;;15.74;47.54;100564.31;5076575;28;1980;-51
2024/01/01 10:04:29;;;;;;;;;;;;;;;15.56;46.86;100555.88;5077690;28;1019;-50
2024/01/01 10:06:55;;;;;;;;;;;;;;;16.37;48.40;100547.38;5078543;28;1147;-52
2024/01/01 10:09:21;;;;;;;;;;;;;;;16.88;47.75;100552.44;5065554;28;967;-53
2024/01/01 10:11:46;;;;;;;;;;;;;;;16.05;48.19;100541.84;5078047;28;1027;-52
2024/01/01 10:14:12;;;;;;;;;;;;;;;15.68;47.45;100543.53;5077039;28;1043;-50
2024/01/01 10:16:40;;;;;;;;;;;;;;;15.56;46.77;100534.66;5065976;28;1190;-50
2024/01/01 10:19:06;;;;;;;;;;;;;;;16.55;48.58;100533.66;5077777;28;1203;-54
2024/01/01 10:21:35;;;;;;;;;;;;;;;17.12;47.33;100522.25;5077933;28;1265;-52
2024/01/01 10:24:17;;;;;;;;;;;;;;;16.00;48.28;100513.81;5077778;28;1910;-51
2024/01/01 10:26:43;;;;;;;;;;;;;;;15.84;47.63;100507.94;5076846;28;2349;-54
2024/01/01 10:29:10;;;;;;;;;;;;;;;16.84;48.60;100511.13;5077779;28;1184;-53
2024/01/01 10:31:36;;;;;;;;;;;;;;;16.70;48.33;100504.25;5077169;28;1302;-54
2024/01/01 10:34:03;;;;;;;;;;;;;;;16.03;48.14;100500.31;5077186;28;1195;-53
2024/01/01 10:36:29;;;;;;;;;;;;;;;15.80;47.74;100502.00;5077438;28;1270;-52
2024/01/01 10:38:54;;;;;;;;;;;;;;;15.58;47.08;100498.25;5059465;28;1167;-54
2024/01/01 10:41:20;;;;;;;;;;;;;;;16.77;48.41;100489.50;5076991;28;1276;-50
2024/01/01 10:43:46;;;;;;;;;;;;;;;16.45;48.33;100495.50;5066814;28;1970;-52
2024/01/01 10:46:12;;;;;;;;;;;;;;;15.88;48.24;100480.22;5077640;28;1286;-51
2024/01/01 10:48:37;;;;;;;;;;;;;;;15.70;47.51;100477.13;5058829;28;1294;-53
2024/01/01 10:51:21;;;;;;;;;;;;;;;15.49;46.83;100473.28;5077111;28;1211;-52
2024/01/01 10:53:56;;;;;;;;;;;;;;;17.28;47.86;100473.22;5059244;28;1239;-53
2024/01/01 10:56:33;;;;;;;;;;;;;;;16.24;48.28;100467.84;5074655;28;2361;-53
2024/01/01 10:59:07;;;;;;;;;;;;;;;15.85;47.65;100459.25;5058901;28;1258;-54
2024/01/01 11:01:33;;;;;;;;;;;;;;;15.52;47.37;100461.59;5076695;28;1436;-54
2024/01/01 11:03:58;;;;;;;;;;;;;;;16.12;48.85;100461.66;5076424;28;1968;-50
2024/01/01 11:06:26;;;;;;;;;;;;;;;16.61;48.10;100460.66;5077162;28;1259;-52
2024/01/01 11:08:52;;;;;;;;;;;;;;;15.92;48.57;100449.84;5074966;28;1159;-50
2024/01/01 11:11:21;;;;;;;;;;;;;;;15.64;47.61;100450.09;5077046;28;1192;-53
2024/01/01 11:13:50;;;;;;;;;;;;;;;17.01;47.91;100443.38;5076204;28;1155;-53
2024/01/01 11:16:15;;;;;;;;;;;;;;;16.12;48.58;100445.72;5075859;28;1333;-52
2024/01/01 11:18:43;;;;;;;;;;;;;;;15.76;47.58;100442.19;5059066;28;1286;-53
2024/01/01 11:21:24;;;;;;;;;;;;;;;15.98;48.65;100438.78;5076162;28;1147;-53
2024/01/01 11:23:50;;;;;;;;;;;;;;;16.88;47.91;100439.03;5076337;28;1901;-54
2024/01/01 11:26:22;;;;;;;;;;;;;;;16.05;48.25;100428.56;5075560;28;2226;-54
2024/01/01 11:28:51;;;;;;;;;;;;;;;15.79;47.54;100434.88;5076333;28;1234;-54
2024/01/01 11:31:16;;;;;;;;;;;;;;;15.57;46.97;100434.75;5050962;28;1235;-49
2024/01/01 11:33:42;;;;;;;;;;;;;;;16.89;47.73;100432.75;5059048;28;985;-48
2024/01/01 11:36:10;;;;;;;;;;;;;;;15.99;48.24;100429.03;5064811;28;1182;-49
2024/01/01 11:38:36;;;;;;;;;;;;;;;15.64;48.04;100418.28;5073986;28;1103;-49
2024/01/01 11:41:02;;;;;;;;;;;;;;;16.68;48.70;100421.19;5068177;28;1007;-46
2024/01/01 11:43:27;;;;;;;;;;;;;;;16.64;48.20;100408.13;5024600;28;1902;-48
2024/01/01 11:45:54;;;;;;;;;;;;;;;15.99;48.35;100402.50;5066946;28;862;-51
2024/01/01 11:48:19;;;;;;;;;;;;;;;16.07;48.90;100401.91;5058960;28;1429;-49
2024/01/01 11:50:46;;;;;;;;;;;;;;;16.80;48.05;100398.94;5076232;28;1387;-46
2024/01/01 11:53:14;;;;;;;;;;;;;;;16.11;48.28;100395.41;5075613;28;1172;-52
2024/01/01 11:55:40;;;;;;;;;;;;;;;15.79;47.89;100394.22;5076153;28;1067;-50
2024/01/01 11:58:06;;;;;;;;;;;;;;;16.96;48.38;100387.09;5064570;28;2301;-44
2024/01/01 12:00:31;;;;;;;;;;;;;;;16.35;48.37;100389.19;5064073;28;1115;-50
2024/01/01 12:02:57;;;;;;;;;;;;;;;15.87;48.02;100385.69;5056897;28;1983;-48
2024/01/01 12:05:22;;;;;;;;;;;;;;;17.24;47.90;100388.38;5064367;28;1135;-49
2024/01/01 12:07:48;;;;;;;;;;;;;;;16.55;48.25;100398.22;5069860;28;1167;-46
2024/01/01 12:10:15;;;;;;;;;;;;;;;16.00;48.20;100391.78;5070861;28;1001;-53
2024/01/01 12:12:42;;;;;;;;;;;;;;;15.95;47.40;100391.25;5066971;28;1090;-44
2024/01/01 12:15:22;;;;;;;;;;;;;;;15.72;46.71;100379.72;5074078;28;906;-46
2024/01/01 12:17:51;;;;;;;;;;;;;;;16.31;47.93;100393.88;5057233;28;1191;-50
2024/01/01 12:20:18;;;;;;;;;;;;;;;16.56;48.39;100391.97;5071948;28;1293;-47
2024/01/01 12:22:44;;;;;;;;;;;;;;;15.85;48.54;100393.75;5057253;28;1974;-46
2024/01/01 12:25:14;;;;;;;;;;;;;;;15.71;47.57;100392.16;5076068;28;1090;-45
2024/01/01 12:27:40;;;;;;;;;;;;;;;16.50;48.33;100401.25;5070101;28;1816;-48
2024/01/01 12:30:05;;;;;;;;;;;;;;;16.36;48.25;100394.38;5063984;28;1158;-50
2024/01/01 12:32:31;;;;;;;;;;;;;;;15.92;47.85;100380.88;5069636;28;1098;-49
2024/01/01 12:34:57;;;;;;;;;;;;;;;15.65;47.56;100382.00;5057011;28;1255;-48
2024/01/01 12:37:22;;;;;;;;;;;;;;;17.03;47.76;100390.94;5067958;28;1138;-45
2024/01/01 12:39:50;;;;;;;;;;;;;;;16.03;48.58;100383.56;5055427;28;1106;-48
2024/01/01 12:42:16;;;;;;;;;;;;;;;15.81;47.78;100380.84;5063532;28;1976;-47